sensor_id;sensor_type;location;lat;lon;timestamp;temperature;humidity
64718;DHT22;62506;46.070;14.492;2023-03-15T00:01:31;22.00;52.80
64718;DHT22;62506;46.070;14.492;2023-03-15T00:03:56;22.00;52.80
64718;DHT22;62506;46.070;14.492;2023-03-15T00:06:22;22.00;52.80
64718;DHT22;62506;46.070;14.492;2023-03-15T00:08:48;22.00;52.80
64718;DHT22;62506;46.070;14.492;2023-03-15T00:11:14;22.00;52.80
64718;DHT22;62506;46.070;14.492;2023-03-15T00:13:40;22.00;52.80
64718;DHT22;62506;46.070;14.492;2023-03-15T00:16:06;21.90;52.80
64718;DHT22;62506;46.070;14.492;2023-03-15T00:18:32;21.90;52.80
64718;DHT22;62506;46.070;14.492;2023-03-15T00:20:58;21.90;52.90
64718;DHT22;62506;46.070;14.492;2023-03-15T00:23:23;21.90;52.90
64718;DHT22;62506;46.070;14.492;2023-03-15T00:25:50;21.90;52.80
64718;DHT22;62506;46.070;14.492;2023-03-15T00:28:16;21.90;52.90
64718;DHT22;62506;46.070;14.492;2023-03-15T00:30:42;21.90;52.90
64718;DHT22;62506;46.070;14.492;2023-03-15T00:33:08;22.00;53.00
64718;DHT22;62506;46.070;14.492;2023-03-15T00:35:42;21.90;52.80
64718;DHT22;62506;46.070;14.492;2023-03-15T00:38:08;22.00;52.90
64718;DHT22;62506;46.070;14.492;2023-03-15T00:40:35;21.90;52.80
64718;DHT22;62506;46.070;14.492;2023-03-15T00:43:01;22.00;52.90
64718;DHT22;62506;46.070;14.492;2023-03-15T00:45:27;21.90;52.80
64718;DHT22;62506;46.070;14.492;2023-03-15T00:47:53;22.00;52.90
64718;DHT22;62506;46.070;14.492;2023-03-15T00:50:23;21.90;52.80
64718;DHT22;62506;46.070;14.492;2023-03-15T00:52:49;21.90;52.80
64718;DHT22;62506;46.070;14.492;2023-03-15T00:55:16;22.00;52.90
64718;DHT22;62506;46.070;14.492;2023-03-15T00:57:42;22.00;52.90
64718;DHT22;62506;46.070;14.492;2023-03-15T01:00:09;22.00;52.80
64718;DHT22;62506;46.070;14.492;2023-03-15T01:02:35;22.00;52.80
64718;DHT22;62506;46.070;14.492;2023-03-15T01:05:05;22.00;52.80
64718;DHT22;62506;46.070;14.492;2023-03-15T01:07:31;21.90;52.80
64718;DHT22;62506;46.070;14.492;2023-03-15T01:09:58;22.00;52.80
64718;DHT22;62506;46.070;14.492;2023-03-15T01:12:23;22.00;52.80
64718;DHT22;62506;46.070;14.492;2023-03-15T01:14:49;22.00;52.80
64718;DHT22;62506;46.070;14.492;2023-03-15T01:17:15;22.00;52.80
64718;DHT22;62506;46.070;14.492;2023-03-15T01:19:40;22.00;52.80
64718;DHT22;62506;46.070;14.492;2023-03-15T01:22:06;22.00;52.80
64718;DHT22;62506;46.070;14.492;2023-03-15T01:24:31;21.90;52.80
64718;DHT22;62506;46.070;14.492;2023-03-15T01:26:57;22.00;52.80
64718;DHT22;62506;46.070;14.492;2023-03-15T01:29:23;21.90;52.80
64718;DHT22;62506;46.070;14.492;2023-03-15T01:31:48;21.90;52.80
64718;DHT22;62506;46.070;14.492;2023-03-15T01:34:14;21.90;52.80
64718;DHT22;62506;46.070;14.492;2023-03-15T01:36:39;21.90;52.80
64718;DHT22;62506;46.070;14.492;2023-03-15T01:39:05;21.90;52.90
64718;DHT22;62506;46.070;14.492;2023-03-15T01:41:30;22.00;52.90
64718;DHT22;62506;46.070;14.492;2023-03-15T01:43:56;21.90;52.80
64718;DHT22;62506;46.070;14.492;2023-03-15T01:46:23;21.90;52.90
64718;DHT22;62506;46.070;14.492;2023-03-15T01:51:38;22.00;52.90
64718;DHT22;62506;46.070;14.492;2023-03-15T01:54:14;21.90;52.90
64718;DHT22;62506;46.070;14.492;2023-03-15T01:56:43;21.90;52.80
64718;DHT22;62506;46.070;14.492;2023-03-15T01:59:12;21.90;52.80
64718;DHT22;62506;46.070;14.492;2023-03-15T02:01:38;21.90;52.90
64718;DHT22;62506;46.070;14.492;2023-03-15T02:04:11;21.90;52.90
64718;DHT22;62506;46.070;14.492;2023-03-15T02:06:37;21.90;52.90
64718;DHT22;62506;46.070;14.492;2023-03-15T02:09:04;21.90;52.80
64718;DHT22;62506;46.070;14.492;2023-03-15T02:11:31;21.90;52.90
64718;DHT22;62506;46.070;14.492;2023-03-15T02:13:58;21.90;52.90
64718;DHT22;62506;46.070;14.492;2023-03-15T02:16:24;21.90;52.90
64718;DHT22;62506;46.070;14.492;2023-03-15T02:18:50;21.90;52.90
64718;DHT22;62506;46.070;14.492;2023-03-15T02:21:19;21.90;52.80
64718;DHT22;62506;46.070;14.492;2023-03-15T02:23:47;21.90;52.80
64718;DHT22;62506;46.070;14.492;2023-03-15T02:26:19;21.90;52.90
64718;DHT22;62506;46.070;14.492;2023-03-15T02:28:47;21.90;53.00
64718;DHT22;62506;46.070;14.492;2023-03-15T02:31:14;21.90;53.10
64718;DHT22;62506;46.070;14.492;2023-03-15T02:36:19;21.80;53.10
64718;DHT22;62506;46.070;14.492;2023-03-15T02:38:46;21.80;53.10
64718;DHT22;62506;46.070;14.492;2023-03-15T02:41:12;21.80;53.10
64718;DHT22;62506;46.070;14.492;2023-03-15T02:43:39;21.80;53.20
64718;DHT22;62506;46.070;14.492;2023-03-15T02:46:05;21.80;53.10
64718;DHT22;62506;46.070;14.492;2023-03-15T02:48:31;21.80;53.20
64718;DHT22;62506;46.070;14.492;2023-03-15T02:50:58;21.80;53.10
64718;DHT22;62506;46.070;14.492;2023-03-15T02:53:23;21.80;53.10
64718;DHT22;62506;46.070;14.492;2023-03-15T02:55:51;21.80;53.20
64718;DHT22;62506;46.070;14.492;2023-03-15T02:58:17;21.80;53.20
64718;DHT22;62506;46.070;14.492;2023-03-15T03:00:42;21.80;53.20
64718;DHT22;62506;46.070;14.492;2023-03-15T03:03:08;21.80;53.20
64718;DHT22;62506;46.070;14.492;2023-03-15T03:05:34;21.80;53.20
64718;DHT22;62506;46.070;14.492;2023-03-15T03:07:59;21.70;53.20
64718;DHT22;62506;46.070;14.492;2023-03-15T03:10:27;21.70;53.20
64718;DHT22;62506;46.070;14.492;2023-03-15T03:12:53;21.70;53.20
64718;DHT22;62506;46.070;14.492;2023-03-15T03:15:18;21.70;53.20
64718;DHT22;62506;46.070;14.492;2023-03-15T03:17:45;21.70;53.20
64718;DHT22;62506;46.070;14.492;2023-03-15T03:20:11;21.70;53.20
64718;DHT22;62506;46.070;14.492;2023-03-15T03:22:38;21.70;53.20
64718;DHT22;62506;46.070;14.492;2023-03-15T03:25:04;21.70;53.20
64718;DHT22;62506;46.070;14.492;2023-03-15T03:27:30;21.70;53.20
64718;DHT22;62506;46.070;14.492;2023-03-15T03:29:56;21.70;53.30
64718;DHT22;62506;46.070;14.492;2023-03-15T03:32:23;21.70;53.20
64718;DHT22;62506;46.070;14.492;2023-03-15T03:34:48;21.70;53.20
64718;DHT22;62506;46.070;14.492;2023-03-15T03:37:17;21.70;53.20
64718;DHT22;62506;46.070;14.492;2023-03-15T03:39:46;21.70;53.10
64718;DHT22;62506;46.070;14.492;2023-03-15T03:42:11;21.80;53.00
64718;DHT22;62506;46.070;14.492;2023-03-15T03:44:39;21.80;53.00
64718;DHT22;62506;46.070;14.492;2023-03-15T03:47:04;21.80;53.00
64718;DHT22;62506;46.070;14.492;2023-03-15T03:49:30;21.80;52.90
64718;DHT22;62506;46.070;14.492;2023-03-15T03:51:55;21.80;52.90
64718;DHT22;62506;46.070;14.492;2023-03-15T03:54:21;21.80;53.00
64718;DHT22;62506;46.070;14.492;2023-03-15T03:56:47;21.80;53.00
64718;DHT22;62506;46.070;14.492;2023-03-15T03:59:13;21.80;53.00
64718;DHT22;62506;46.070;14.492;2023-03-15T04:01:39;21.80;53.70
64718;DHT22;62506;46.070;14.492;2023-03-15T04:04:06;21.80;53.00
64718;DHT22;62506;46.070;14.492;2023-03-15T04:06:32;21.80;53.00
64718;DHT22;62506;46.070;14.492;2023-03-15T04:08:58;21.80;52.90
64718;DHT22;62506;46.070;14.492;2023-03-15T04:11:23;21.80;52.90
64718;DHT22;62506;46.070;14.492;2023-03-15T04:13:54;21.80;52.90
64718;DHT22;62506;46.070;14.492;2023-03-15T04:16:19;21.80;52.90
64718;DHT22;62506;46.070;14.492;2023-03-15T04:18:45;21.80;52.80
64718;DHT22;62506;46.070;14.492;2023-03-15T04:21:11;21.80;52.80
64718;DHT22;62506;46.070;14.492;2023-03-15T04:23:38;21.80;52.90
64718;DHT22;62506;46.070;14.492;2023-03-15T04:26:04;21.80;52.90
64718;DHT22;62506;46.070;14.492;2023-03-15T04:28:32;21.80;52.90
64718;DHT22;62506;46.070;14.492;2023-03-15T04:30:58;21.80;52.80
64718;DHT22;62506;46.070;14.492;2023-03-15T04:33:24;21.80;52.80
64718;DHT22;62506;46.070;14.492;2023-03-15T04:35:52;21.80;52.70
64718;DHT22;62506;46.070;14.492;2023-03-15T04:38:18;21.80;52.60
64718;DHT22;62506;46.070;14.492;2023-03-15T04:40:44;21.80;52.60
64718;DHT22;62506;46.070;14.492;2023-03-15T04:43:10;21.80;52.60
64718;DHT22;62506;46.070;14.492;2023-03-15T04:45:35;21.90;52.50
64718;DHT22;62506;46.070;14.492;2023-03-15T04:48:01;21.90;53.10
64718;DHT22;62506;46.070;14.492;2023-03-15T04:50:27;21.90;52.40
64718;DHT22;62506;46.070;14.492;2023-03-15T04:52:53;21.90;52.40
64718;DHT22;62506;46.070;14.492;2023-03-15T04:55:19;21.90;52.30
64718;DHT22;62506;46.070;14.492;2023-03-15T04:57:44;21.90;52.50
64718;DHT22;62506;46.070;14.492;2023-03-15T05:00:10;21.90;52.30
64718;DHT22;62506;46.070;14.492;2023-03-15T05:02:40;21.90;52.30
64718;DHT22;62506;46.070;14.492;2023-03-15T05:05:06;21.90;52.50
64718;DHT22;62506;46.070;14.492;2023-03-15T05:07:33;21.90;52.80
64718;DHT22;62506;46.070;14.492;2023-03-15T05:09:59;22.00;52.30
64718;DHT22;62506;46.070;14.492;2023-03-15T05:12:24;21.90;52.40
64718;DHT22;62506;46.070;14.492;2023-03-15T05:14:50;21.90;52.50
64718;DHT22;62506;46.070;14.492;2023-03-15T05:17:16;22.00;52.60
64718;DHT22;62506;46.070;14.492;2023-03-15T05:19:41;22.00;53.20
64718;DHT22;62506;46.070;14.492;2023-03-15T05:22:07;22.00;52.80
64718;DHT22;62506;46.070;14.492;2023-03-15T05:24:32;22.10;53.10
64718;DHT22;62506;46.070;14.492;2023-03-15T05:26:58;22.10;51.50
64718;DHT22;62506;46.070;14.492;2023-03-15T05:29:24;22.10;51.40
64718;DHT22;62506;46.070;14.492;2023-03-15T05:31:50;22.10;51.80
64718;DHT22;62506;46.070;14.492;2023-03-15T05:34:19;22.10;52.10
64718;DHT22;62506;46.070;14.492;2023-03-15T05:36:49;22.20;52.60
64718;DHT22;62506;46.070;14.492;2023-03-15T05:39:16;22.20;52.50
64718;DHT22;62506;46.070;14.492;2023-03-15T05:41:41;22.20;52.30
64718;DHT22;62506;46.070;14.492;2023-03-15T05:44:10;22.30;52.20
64718;DHT22;62506;46.070;14.492;2023-03-15T05:46:35;22.30;52.00
64718;DHT22;62506;46.070;14.492;2023-03-15T05:49:01;22.30;52.10
64718;DHT22;62506;46.070;14.492;2023-03-15T05:51:27;22.30;52.20
64718;DHT22;62506;46.070;14.492;2023-03-15T05:53:52;22.20;52.40
64718;DHT22;62506;46.070;14.492;2023-03-15T05:56:18;22.30;52.70
64718;DHT22;62506;46.070;14.492;2023-03-15T05:58:45;22.30;52.90
64718;DHT22;62506;46.070;14.492;2023-03-15T06:01:10;22.20;52.10
64718;DHT22;62506;46.070;14.492;2023-03-15T06:03:36;22.20;52.20
64718;DHT22;62506;46.070;14.492;2023-03-15T06:06:01;22.10;51.90
64718;DHT22;62506;46.070;14.492;2023-03-15T06:08:27;22.10;52.10
64718;DHT22;62506;46.070;14.492;2023-03-15T06:10:53;22.10;52.10
64718;DHT22;62506;46.070;14.492;2023-03-15T06:13:21;22.10;52.30
64718;DHT22;62506;46.070;14.492;2023-03-15T06:15:47;22.10;52.20
64718;DHT22;62506;46.070;14.492;2023-03-15T06:18:14;22.10;52.20
64718;DHT22;62506;46.070;14.492;2023-03-15T06:20:41;22.10;52.10
64718;DHT22;62506;46.070;14.492;2023-03-15T06:23:07;22.10;51.80
64718;DHT22;62506;46.070;14.492;2023-03-15T06:25:33;22.10;52.10
64718;DHT22;62506;46.070;14.492;2023-03-15T06:27:58;22.10;51.90
64718;DHT22;62506;46.070;14.492;2023-03-15T06:30:24;22.10;51.80
64718;DHT22;62506;46.070;14.492;2023-03-15T06:32:50;22.10;51.90
64718;DHT22;62506;46.070;14.492;2023-03-15T06:35:16;22.10;52.00
64718;DHT22;62506;46.070;14.492;2023-03-15T06:37:41;22.10;52.00
64718;DHT22;62506;46.070;14.492;2023-03-15T06:40:10;22.10;52.10
64718;DHT22;62506;46.070;14.492;2023-03-15T06:42:36;22.10;52.00
64718;DHT22;62506;46.070;14.492;2023-03-15T06:45:02;22.10;52.00
64718;DHT22;62506;46.070;14.492;2023-03-15T06:47:28;22.10;52.10
64718;DHT22;62506;46.070;14.492;2023-03-15T06:49:54;22.10;51.90
64718;DHT22;62506;46.070;14.492;2023-03-15T06:52:19;22.10;52.00
64718;DHT22;62506;46.070;14.492;2023-03-15T06:54:45;22.10;52.00
64718;DHT22;62506;46.070;14.492;2023-03-15T06:57:10;22.10;51.90
64718;DHT22;62506;46.070;14.492;2023-03-15T06:59:36;22.10;51.90
64718;DHT22;62506;46.070;14.492;2023-03-15T07:02:02;22.10;51.70
64718;DHT22;62506;46.070;14.492;2023-03-15T07:04:27;22.10;51.70
64718;DHT22;62506;46.070;14.492;2023-03-15T07:06:53;22.10;51.80
64718;DHT22;62506;46.070;14.492;2023-03-15T07:09:19;22.10;50.60
64718;DHT22;62506;46.070;14.492;2023-03-15T07:11:48;22.10;51.40
64718;DHT22;62506;46.070;14.492;2023-03-15T07:14:14;22.10;51.50
64718;DHT22;62506;46.070;14.492;2023-03-15T07:16:39;22.10;51.60
64718;DHT22;62506;46.070;14.492;2023-03-15T07:19:05;22.10;51.60
64718;DHT22;62506;46.070;14.492;2023-03-15T07:21:32;22.10;51.60
64718;DHT22;62506;46.070;14.492;2023-03-15T07:23:58;22.10;51.70
64718;DHT22;62506;46.070;14.492;2023-03-15T07:26:24;22.10;51.80
64718;DHT22;62506;46.070;14.492;2023-03-15T07:29:11;22.10;51.80
64718;DHT22;62506;46.070;14.492;2023-03-15T07:31:38;22.10;51.80
64718;DHT22;62506;46.070;14.492;2023-03-15T07:34:04;22.10;51.80
64718;DHT22;62506;46.070;14.492;2023-03-15T07:36:32;22.00;51.80
64718;DHT22;62506;46.070;14.492;2023-03-15T07:39:01;22.00;51.80
64718;DHT22;62506;46.070;14.492;2023-03-15T07:41:29;22.00;51.80
64718;DHT22;62506;46.070;14.492;2023-03-15T07:44:15;22.00;51.80
64718;DHT22;62506;46.070;14.492;2023-03-15T07:47:10;22.00;51.80
64718;DHT22;62506;46.070;14.492;2023-03-15T07:49:38;22.00;51.80
64718;DHT22;62506;46.070;14.492;2023-03-15T07:52:08;22.00;51.90
64718;DHT22;62506;46.070;14.492;2023-03-15T07:54:37;22.00;51.80
64718;DHT22;62506;46.070;14.492;2023-03-15T07:57:04;22.00;51.90
64718;DHT22;62506;46.070;14.492;2023-03-15T07:59:30;22.00;51.90
64718;DHT22;62506;46.070;14.492;2023-03-15T08:01:56;22.00;51.90
64718;DHT22;62506;46.070;14.492;2023-03-15T08:04:22;22.00;51.70
64718;DHT22;62506;46.070;14.492;2023-03-15T08:07:19;22.00;51.80
64718;DHT22;62506;46.070;14.492;2023-03-15T08:09:46;22.00;51.90
64718;DHT22;62506;46.070;14.492;2023-03-15T08:12:32;22.00;51.90
64718;DHT22;62506;46.070;14.492;2023-03-15T08:15:18;22.00;51.90
64718;DHT22;62506;46.070;14.492;2023-03-15T08:17:46;22.00;51.80
64718;DHT22;62506;46.070;14.492;2023-03-15T08:20:30;21.90;51.70
64718;DHT22;62506;46.070;14.492;2023-03-15T08:23:00;22.00;51.70
64718;DHT22;62506;46.070;14.492;2023-03-15T08:25:46;22.00;52.40
64718;DHT22;62506;46.070;14.492;2023-03-15T08:28:12;22.00;51.70
64718;DHT22;62506;46.070;14.492;2023-03-15T08:30:39;22.00;51.70
64718;DHT22;62506;46.070;14.492;2023-03-15T08:33:19;22.00;51.70
64718;DHT22;62506;46.070;14.492;2023-03-15T08:35:53;22.00;51.60
64718;DHT22;62506;46.070;14.492;2023-03-15T08:38:44;22.00;51.50
64718;DHT22;62506;46.070;14.492;2023-03-15T08:41:36;22.00;51.50
64718;DHT22;62506;46.070;14.492;2023-03-15T08:44:23;22.00;51.60
64718;DHT22;62506;46.070;14.492;2023-03-15T08:47:11;22.00;51.50
64718;DHT22;62506;46.070;14.492;2023-03-15T08:50:19;22.00;51.40
64718;DHT22;62506;46.070;14.492;2023-03-15T08:53:08;22.00;51.30
64718;DHT22;62506;46.070;14.492;2023-03-15T08:55:34;22.10;51.40
64718;DHT22;62506;46.070;14.492;2023-03-15T08:58:01;22.10;51.20
64718;DHT22;62506;46.070;14.492;2023-03-15T09:03:09;22.10;51.00
64718;DHT22;62506;46.070;14.492;2023-03-15T09:06:04;22.10;51.00
64718;DHT22;62506;46.070;14.492;2023-03-15T09:11:37;22.10;51.30
64718;DHT22;62506;46.070;14.492;2023-03-15T09:17:56;22.10;51.40
64718;DHT22;62506;46.070;14.492;2023-03-15T09:21:14;22.10;51.40
64718;DHT22;62506;46.070;14.492;2023-03-15T09:24:26;22.10;51.50
64718;DHT22;62506;46.070;14.492;2023-03-15T09:27:50;22.10;51.40
64718;DHT22;62506;46.070;14.492;2023-03-15T09:30:57;22.10;51.40
64718;DHT22;62506;46.070;14.492;2023-03-15T09:33:23;22.10;51.50
64718;DHT22;62506;46.070;14.492;2023-03-15T09:36:11;22.10;51.60
64718;DHT22;62506;46.070;14.492;2023-03-15T09:38:37;22.10;51.50
64718;DHT22;62506;46.070;14.492;2023-03-15T09:41:31;22.10;51.50
64718;DHT22;62506;46.070;14.492;2023-03-15T09:52:57;22.10;51.40
64718;DHT22;62506;46.070;14.492;2023-03-15T09:55:57;22.10;51.40
64718;DHT22;62506;46.070;14.492;2023-03-15T09:59:05;22.10;51.30
64718;DHT22;62506;46.070;14.492;2023-03-15T10:01:55;22.10;51.30
64718;DHT22;62506;46.070;14.492;2023-03-15T10:05:05;22.10;51.30
64718;DHT22;62506;46.070;14.492;2023-03-15T10:08:19;22.10;51.20
64718;DHT22;62506;46.070;14.492;2023-03-15T10:14:47;22.10;51.10
64718;DHT22;62506;46.070;14.492;2023-03-15T10:27:12;22.10;51.20
64718;DHT22;62506;46.070;14.492;2023-03-15T10:44:25;22.10;51.30
64718;DHT22;62506;46.070;14.492;2023-03-15T10:46:58;22.10;51.30
64718;DHT22;62506;46.070;14.492;2023-03-15T10:49:36;22.10;51.50
64718;DHT22;62506;46.070;14.492;2023-03-15T10:52:38;22.10;51.40
64718;DHT22;62506;46.070;14.492;2023-03-15T10:55:15;22.10;51.00
64718;DHT22;62506;46.070;14.492;2023-03-15T10:58:18;22.10;51.20
64718;DHT22;62506;46.070;14.492;2023-03-15T11:01:10;22.10;51.20
64718;DHT22;62506;46.070;14.492;2023-03-15T11:04:12;22.10;51.10
64718;DHT22;62506;46.070;14.492;2023-03-15T11:07:01;22.10;51.00
64718;DHT22;62506;46.070;14.492;2023-03-15T11:10:04;22.10;51.00
64718;DHT22;62506;46.070;14.492;2023-03-15T11:12:31;22.10;50.70
64718;DHT22;62506;46.070;14.492;2023-03-15T11:15:10;22.10;50.70
64718;DHT22;62506;46.070;14.492;2023-03-15T11:17:45;22.10;50.90
64718;DHT22;62506;46.070;14.492;2023-03-15T11:22:46;22.10;50.60
64718;DHT22;62506;46.070;14.492;2023-03-15T11:25:32;22.10;50.60
64718;DHT22;62506;46.070;14.492;2023-03-15T11:31:07;22.10;49.80
64718;DHT22;62506;46.070;14.492;2023-03-15T11:33:52;22.20;50.20
64718;DHT22;62506;46.070;14.492;2023-03-15T11:36:21;22.20;50.10
64718;DHT22;62506;46.070;14.492;2023-03-15T11:38:46;22.20;50.00
64718;DHT22;62506;46.070;14.492;2023-03-15T11:41:19;22.20;50.10
64718;DHT22;62506;46.070;14.492;2023-03-15T11:48:51;22.10;50.10
64718;DHT22;62506;46.070;14.492;2023-03-15T11:54:31;22.10;49.90
64718;DHT22;62506;46.070;14.492;2023-03-15T11:57:48;22.10;49.10
64718;DHT22;62506;46.070;14.492;2023-03-15T12:02:52;22.20;50.40
64718;DHT22;62506;46.070;14.492;2023-03-15T12:06:01;22.20;49.90
64718;DHT22;62506;46.070;14.492;2023-03-15T12:27:30;22.30;49.30
64718;DHT22;62506;46.070;14.492;2023-03-15T12:30:04;22.30;49.40
64718;DHT22;62506;46.070;14.492;2023-03-15T12:33:11;22.30;49.20
64718;DHT22;62506;46.070;14.492;2023-03-15T12:35:45;22.30;49.20
64718;DHT22;62506;46.070;14.492;2023-03-15T12:38:59;22.30;49.20
64718;DHT22;62506;46.070;14.492;2023-03-15T12:42:05;22.30;48.50
64718;DHT22;62506;46.070;14.492;2023-03-15T12:52:53;22.30;48.40
64718;DHT22;62506;46.070;14.492;2023-03-15T12:55:23;22.30;48.40
64718;DHT22;62506;46.070;14.492;2023-03-15T12:57:52;22.30;48.30
64718;DHT22;62506;46.070;14.492;2023-03-15T13:03:25;22.30;48.30
64718;DHT22;62506;46.070;14.492;2023-03-15T13:05:55;22.30;48.70
64718;DHT22;62506;46.070;14.492;2023-03-15T13:08:24;22.30;48.40
64718;DHT22;62506;46.070;14.492;2023-03-15T13:18:49;22.20;48.20
64718;DHT22;62506;46.070;14.492;2023-03-15T13:23:55;22.20;47.90
64718;DHT22;62506;46.070;14.492;2023-03-15T13:29:29;22.10;48.00
64718;DHT22;62506;46.070;14.492;2023-03-15T13:34:31;22.10;48.00
64718;DHT22;62506;46.070;14.492;2023-03-15T13:36:58;22.10;48.00
64718;DHT22;62506;46.070;14.492;2023-03-15T13:39:27;22.10;48.90
64718;DHT22;62506;46.070;14.492;2023-03-15T13:41:56;22.10;48.20
64718;DHT22;62506;46.070;14.492;2023-03-15T13:44:23;22.10;48.30
64718;DHT22;62506;46.070;14.492;2023-03-15T13:46:50;22.00;45.80
64718;DHT22;62506;46.070;14.492;2023-03-15T13:49:21;22.00;46.50
64718;DHT22;62506;46.070;14.492;2023-03-15T13:51:56;22.00;47.50
64718;DHT22;62506;46.070;14.492;2023-03-15T13:54:46;22.00;48.20
64718;DHT22;62506;46.070;14.492;2023-03-15T13:57:17;22.00;48.20
64718;DHT22;62506;46.070;14.492;2023-03-15T13:59:44;22.10;47.70
64718;DHT22;62506;46.070;14.492;2023-03-15T14:02:21;22.10;47.70
64718;DHT22;62506;46.070;14.492;2023-03-15T14:04:55;22.10;48.30
64718;DHT22;62506;46.070;14.492;2023-03-15T14:07:26;22.10;48.50
64718;DHT22;62506;46.070;14.492;2023-03-15T14:12:54;22.10;48.50
64718;DHT22;62506;46.070;14.492;2023-03-15T14:15:34;22.10;48.80
64718;DHT22;62506;46.070;14.492;2023-03-15T14:18:03;22.10;49.10
64718;DHT22;62506;46.070;14.492;2023-03-15T14:23:10;22.10;49.00
64718;DHT22;62506;46.070;14.492;2023-03-15T14:25:36;22.10;49.00
64718;DHT22;62506;46.070;14.492;2023-03-15T14:28:03;22.10;49.20
64718;DHT22;62506;46.070;14.492;2023-03-15T14:30:33;22.10;49.30
64718;DHT22;62506;46.070;14.492;2023-03-15T14:33:21;22.10;50.10
64718;DHT22;62506;46.070;14.492;2023-03-15T14:35:48;22.10;49.70
64718;DHT22;62506;46.070;14.492;2023-03-15T14:38:23;22.10;49.90
64718;DHT22;62506;46.070;14.492;2023-03-15T14:40:51;22.10;50.00
64718;DHT22;62506;46.070;14.492;2023-03-15T14:44:01;22.10;49.90
64718;DHT22;62506;46.070;14.492;2023-03-15T14:47:06;22.10;50.50
64718;DHT22;62506;46.070;14.492;2023-03-15T14:49:38;22.10;50.80
64718;DHT22;62506;46.070;14.492;2023-03-15T14:52:04;22.10;50.60
64718;DHT22;62506;46.070;14.492;2023-03-15T14:54:32;22.10;50.30
64718;DHT22;62506;46.070;14.492;2023-03-15T14:57:37;22.10;49.60
64718;DHT22;62506;46.070;14.492;2023-03-15T15:00:52;22.10;50.70
64718;DHT22;62506;46.070;14.492;2023-03-15T15:03:58;22.10;51.70
64718;DHT22;62506;46.070;14.492;2023-03-15T15:07:08;22.20;51.70
64718;DHT22;62506;46.070;14.492;2023-03-15T15:10:09;22.20;51.70
64718;DHT22;62506;46.070;14.492;2023-03-15T15:13:22;22.30;51.20
64718;DHT22;62506;46.070;14.492;2023-03-15T15:16:01;22.30;50.60
64718;DHT22;62506;46.070;14.492;2023-03-15T15:18:28;22.40;49.60
64718;DHT22;62506;46.070;14.492;2023-03-15T15:20:57;22.40;50.30
64718;DHT22;62506;46.070;14.492;2023-03-15T15:23:46;22.50;49.70
64718;DHT22;62506;46.070;14.492;2023-03-15T15:26:13;22.50;50.10
64718;DHT22;62506;46.070;14.492;2023-03-15T15:28:40;22.50;48.40
64718;DHT22;62506;46.070;14.492;2023-03-15T15:31:06;22.40;44.70
64718;DHT22;62506;46.070;14.492;2023-03-15T15:33:32;22.40;45.10
64718;DHT22;62506;46.070;14.492;2023-03-15T15:35:59;22.50;46.90
64718;DHT22;62506;46.070;14.492;2023-03-15T15:39:21;22.50;47.50
64718;DHT22;62506;46.070;14.492;2023-03-15T15:42:19;22.50;47.80
64718;DHT22;62506;46.070;14.492;2023-03-15T15:52:11;22.40;47.90
64718;DHT22;62506;46.070;14.492;2023-03-15T15:54:37;22.40;47.90
64718;DHT22;62506;46.070;14.492;2023-03-15T15:57:03;22.40;48.30
64718;DHT22;62506;46.070;14.492;2023-03-15T15:59:32;22.40;48.20
64718;DHT22;62506;46.070;14.492;2023-03-15T16:02:00;22.40;48.40
64718;DHT22;62506;46.070;14.492;2023-03-15T16:04:38;22.50;48.70
64718;DHT22;62506;46.070;14.492;2023-03-15T16:15:21;22.40;49.20
64718;DHT22;62506;46.070;14.492;2023-03-15T16:17:49;22.40;49.50
64718;DHT22;62506;46.070;14.492;2023-03-15T16:20:15;22.40;49.40
64718;DHT22;62506;46.070;14.492;2023-03-15T16:22:44;22.40;49.40
64718;DHT22;62506;46.070;14.492;2023-03-15T16:25:16;22.40;49.40
64718;DHT22;62506;46.070;14.492;2023-03-15T16:28:45;22.40;49.40
64718;DHT22;62506;46.070;14.492;2023-03-15T16:31:19;22.40;49.40
64718;DHT22;62506;46.070;14.492;2023-03-15T16:34:11;22.40;49.60
64718;DHT22;62506;46.070;14.492;2023-03-15T16:36:38;22.40;49.60
64718;DHT22;62506;46.070;14.492;2023-03-15T16:39:11;22.40;49.60
64718;DHT22;62506;46.070;14.492;2023-03-15T16:41:56;22.40;49.30
64718;DHT22;62506;46.070;14.492;2023-03-15T16:45:19;22.40;49.10
64718;DHT22;62506;46.070;14.492;2023-03-15T16:47:47;22.40;49.30
64718;DHT22;62506;46.070;14.492;2023-03-15T16:50:13;22.40;49.30
64718;DHT22;62506;46.070;14.492;2023-03-15T16:52:54;22.40;49.30
64718;DHT22;62506;46.070;14.492;2023-03-15T16:55:30;22.40;49.20
64718;DHT22;62506;46.070;14.492;2023-03-15T16:58:00;22.40;49.30
64718;DHT22;62506;46.070;14.492;2023-03-15T17:00:26;22.50;49.50
64718;DHT22;62506;46.070;14.492;2023-03-15T17:03:16;22.50;49.30
64718;DHT22;62506;46.070;14.492;2023-03-15T17:05:57;22.50;49.20
64718;DHT22;62506;46.070;14.492;2023-03-15T17:08:23;22.50;49.20
64718;DHT22;62506;46.070;14.492;2023-03-15T17:11:28;22.50;49.30
64718;DHT22;62506;46.070;14.492;2023-03-15T17:13:55;22.60;49.50
64718;DHT22;62506;46.070;14.492;2023-03-15T17:16:22;22.60;49.10
64718;DHT22;62506;46.070;14.492;2023-03-15T17:18:47;22.50;48.90
64718;DHT22;62506;46.070;14.492;2023-03-15T17:21:14;22.50;49.10
64718;DHT22;62506;46.070;14.492;2023-03-15T17:23:45;22.50;49.20
64718;DHT22;62506;46.070;14.492;2023-03-15T17:26:11;22.50;49.50
64718;DHT22;62506;46.070;14.492;2023-03-15T17:28:40;22.50;49.80
64718;DHT22;62506;46.070;14.492;2023-03-15T17:31:11;22.50;49.70
64718;DHT22;62506;46.070;14.492;2023-03-15T17:33:37;22.50;50.00
64718;DHT22;62506;46.070;14.492;2023-03-15T17:36:03;22.50;48.60
64718;DHT22;62506;46.070;14.492;2023-03-15T17:38:34;22.50;48.60
64718;DHT22;62506;46.070;14.492;2023-03-15T17:41:20;22.40;49.40
64718;DHT22;62506;46.070;14.492;2023-03-15T17:43:46;22.40;49.80
64718;DHT22;62506;46.070;14.492;2023-03-15T17:46:22;22.40;50.00
64718;DHT22;62506;46.070;14.492;2023-03-15T17:48:59;22.50;49.80
64718;DHT22;62506;46.070;14.492;2023-03-15T17:56:43;22.50;49.90
64718;DHT22;62506;46.070;14.492;2023-03-15T17:59:11;22.50;49.70
64718;DHT22;62506;46.070;14.492;2023-03-15T18:01:39;22.50;49.80
64718;DHT22;62506;46.070;14.492;2023-03-15T18:07:11;22.50;48.60
64718;DHT22;62506;46.070;14.492;2023-03-15T18:09:39;22.50;48.80
64718;DHT22;62506;46.070;14.492;2023-03-15T18:12:24;22.50;49.10
64718;DHT22;62506;46.070;14.492;2023-03-15T18:14:52;22.50;49.30